Etusivu
METAR-TAF:

METAR-TAF

Lentoasemat :

Cartersville Airport

Cartersville, Georgia, Yhdysvallat

Leveyspiiri: 34-07-42N, Pituuspiiri: 084-50-50W, korkeus merenpinnasta: 233 m

Tämänhetkinen sää

Tämä raportti tehtiin 48 minuuttia sitten, kello 10.53 UTC
Tuuli 4 kn kaakosta
Lämpötila 18°C
Kosteus 94%
Ilmanpaine 1018 hPa
Näkyvyys: 9.7 km
selkeää
utua

METAR: KVPC 221053Z AUTO 14004KT 6SM BR CLR 18/17 A3006 RMK AO2 SLP167 T01780167

Aika: 07:41 (11:41 UTC)


TAF: puuttuu

Säähavainnot ja -ennusteet yli 4000 lentoasemalta (METAR- ja TAF-raportit).

Käytössä olevat sääasemat on merkitty karttaan keltaisilla ja punaisilla pisteillä.

Aseta hiiri pisteen päälle nähdäksesi sääaseman nimen.

Klikkaa sitten nähdäksesi säähavainnot ja -ennusteet.

Kartan vaihtaminen: klikkaa mustalla rastilla varustettuja vihreitä pisteitä, niin voit zoomata sisään; viivalla varustettua vihreää pistettä, niin voit zoomata ulos tai vihreitä nuolia, niin pääset viereisille kartoille.


METAR-TAF: